createdAt,value
2019-05-18T00:01:13.594Z,6.70
2019-05-18T00:03:42.034Z,7.50
2019-05-18T00:06:10.418Z,8.13
2019-05-18T00:08:38.902Z,6.70
2019-05-18T00:11:07.369Z,6.90
2019-05-18T00:13:35.766Z,7.20
2019-05-18T00:16:04.252Z,7.97
2019-05-18T00:18:32.648Z,10.63
2019-05-18T00:21:01.104Z,11.30
2019-05-18T00:23:29.520Z,10.50
2019-05-18T00:25:57.988Z,9.53
2019-05-18T00:28:26.580Z,10.50
2019-05-18T00:30:55.005Z,9.50
2019-05-18T00:33:23.520Z,8.30
2019-05-18T00:35:51.927Z,8.47
2019-05-18T00:38:20.334Z,9.70
2019-05-18T00:40:48.745Z,21.70
2019-05-18T00:43:17.192Z,8.43
2019-05-18T00:45:45.609Z,9.37
2019-05-18T00:48:14.017Z,8.70
2019-05-18T00:50:42.469Z,8.80
2019-05-18T00:53:10.943Z,8.40
2019-05-18T00:55:39.428Z,12.13
2019-05-18T00:58:07.868Z,9.53
2019-05-18T01:00:36.334Z,9.00
2019-05-18T01:03:04.793Z,8.30
2019-05-18T01:05:33.183Z,8.57
2019-05-18T01:08:01.594Z,8.27
2019-05-18T01:10:30.068Z,10.73
2019-05-18T01:12:58.537Z,9.40
2019-05-18T01:15:27.133Z,9.48
2019-05-18T01:17:57.736Z,13.32
2019-05-18T01:20:25.732Z,11.63
2019-05-18T01:22:54.129Z,10.30
2019-05-18T01:25:22.570Z,9.30
2019-05-18T01:27:51.036Z,8.60
2019-05-18T01:30:19.595Z,8.47
2019-05-18T01:32:48.022Z,11.10
2019-05-18T01:35:16.559Z,8.67
2019-05-18T01:37:44.987Z,12.13
2019-05-18T01:40:13.761Z,8.80
2019-05-18T01:42:42.167Z,8.80
2019-05-18T01:45:16.896Z,10.97
2019-05-18T01:47:41.415Z,9.30
2019-05-18T01:50:10.073Z,10.80
2019-05-18T01:52:38.555Z,10.63
2019-05-18T01:55:08.106Z,9.47
2019-05-18T01:57:36.530Z,10.10
2019-05-18T02:00:09.498Z,10.37
2019-05-18T02:02:37.939Z,11.50
2019-05-18T02:05:06.814Z,9.50
2019-05-18T02:07:35.256Z,10.57
2019-05-18T02:10:05.014Z,11.15
2019-05-18T02:12:33.445Z,10.30
2019-05-18T02:15:02.155Z,9.97
2019-05-18T02:17:30.603Z,9.27
2019-05-18T02:19:59.048Z,13.40
2019-05-18T02:22:27.465Z,17.73
2019-05-18T02:24:55.956Z,11.27
2019-05-18T02:27:24.415Z,10.00
2019-05-18T02:29:52.852Z,11.70
2019-05-18T02:32:21.301Z,10.25
2019-05-18T02:34:49.736Z,9.50
2019-05-18T02:37:18.172Z,10.93
2019-05-18T02:39:48.221Z,11.67
2019-05-18T02:42:16.626Z,14.30
2019-05-18T02:44:45.027Z,12.50
2019-05-18T02:47:13.455Z,11.63
2019-05-18T02:49:41.906Z,13.20
2019-05-18T02:52:10.354Z,12.93
2019-05-18T02:54:38.799Z,11.73
2019-05-18T02:57:07.205Z,12.30
2019-05-18T02:59:35.659Z,11.90
2019-05-18T03:02:04.133Z,11.10
2019-05-18T03:04:32.560Z,12.77
2019-05-18T03:07:01.209Z,12.77
2019-05-18T03:09:29.638Z,14.53
2019-05-18T03:11:58.123Z,14.90
2019-05-18T03:14:26.650Z,14.17
2019-05-18T03:16:55.198Z,12.13
2019-05-18T03:19:23.615Z,12.30
2019-05-18T03:21:52.098Z,13.33
2019-05-18T03:24:20.580Z,15.77
2019-05-18T03:26:49.045Z,12.70
2019-05-18T03:29:17.483Z,15.17
2019-05-18T03:31:45.891Z,12.30
2019-05-18T03:34:14.413Z,13.87
2019-05-18T03:36:42.897Z,13.77
2019-05-18T03:39:11.326Z,12.50
2019-05-18T03:41:39.749Z,13.50
2019-05-18T03:44:08.239Z,13.87
2019-05-18T03:46:36.665Z,13.43
2019-05-18T03:49:05.167Z,11.97
2019-05-18T03:51:33.568Z,12.63
2019-05-18T03:54:01.972Z,12.37
2019-05-18T03:56:30.395Z,12.57
2019-05-18T03:58:58.808Z,10.77
2019-05-18T04:01:27.257Z,10.37
2019-05-18T04:03:55.691Z,11.70
2019-05-18T04:06:24.118Z,12.13
2019-05-18T04:08:52.513Z,11.57
2019-05-18T04:11:20.946Z,10.50
2019-05-18T04:13:49.393Z,13.20
2019-05-18T04:16:17.837Z,12.77
2019-05-18T04:18:46.255Z,11.63
2019-05-18T04:21:14.654Z,11.77
2019-05-18T04:23:43.132Z,16.40
2019-05-18T04:26:11.561Z,10.73
2019-05-18T04:28:39.978Z,9.40
2019-05-18T04:31:08.439Z,8.20
2019-05-18T04:33:36.888Z,10.83
2019-05-18T04:36:05.290Z,10.30
2019-05-18T04:38:33.704Z,9.95
2019-05-18T04:41:02.133Z,10.63
2019-05-18T04:43:30.558Z,11.77
2019-05-18T04:45:59.056Z,9.05
2019-05-18T04:48:27.494Z,11.73
2019-05-18T04:50:55.949Z,10.83
2019-05-18T04:53:24.344Z,8.87
2019-05-18T04:55:52.794Z,14.10
2019-05-18T04:58:21.211Z,8.50
2019-05-18T05:00:49.704Z,8.47
2019-05-18T05:03:18.054Z,10.90
2019-05-18T05:05:46.484Z,8.67
2019-05-18T05:08:14.889Z,11.40
2019-05-18T05:10:43.380Z,11.23
2019-05-18T05:13:11.849Z,9.33
2019-05-18T05:15:40.319Z,12.27
2019-05-18T05:18:08.836Z,8.73
2019-05-18T05:20:37.868Z,11.67
2019-05-18T05:23:06.337Z,10.30
2019-05-18T05:25:34.756Z,9.03
2019-05-18T05:28:03.181Z,10.87
2019-05-18T05:30:33.069Z,11.20
2019-05-18T05:33:01.539Z,9.68
2019-05-18T05:35:29.969Z,9.77
2019-05-18T05:37:58.384Z,8.13
2019-05-18T05:40:26.817Z,9.43
2019-05-18T05:42:55.263Z,11.30
2019-05-18T05:45:23.702Z,7.87
2019-05-18T05:47:53.014Z,13.30
2019-05-18T05:50:34.597Z,7.83
2019-05-18T05:52:51.730Z,11.63
2019-05-18T05:55:20.145Z,9.60
2019-05-18T05:57:48.559Z,10.43
2019-05-18T06:00:18.799Z,11.38
2019-05-18T06:02:47.292Z,9.57
2019-05-18T06:05:15.980Z,10.70
2019-05-18T06:07:44.387Z,7.73
2019-05-18T06:10:13.127Z,8.97
2019-05-18T06:12:41.560Z,19.10
2019-05-18T06:15:10.463Z,11.43
2019-05-18T06:17:38.884Z,8.30
2019-05-18T06:20:08.528Z,9.83
2019-05-18T06:22:37.144Z,9.23
2019-05-18T06:25:07.571Z,12.58
2019-05-18T06:27:36.255Z,6.62
2019-05-18T06:30:06.064Z,7.30
2019-05-18T06:32:34.476Z,8.18
2019-05-18T06:35:02.919Z,12.37
2019-05-18T06:37:31.330Z,6.23
2019-05-18T06:39:59.745Z,9.03
2019-05-18T06:42:28.160Z,7.53
2019-05-18T06:44:56.570Z,7.17
2019-05-18T06:47:24.991Z,8.00
2019-05-18T06:49:53.541Z,7.93
2019-05-18T06:52:21.976Z,7.00
2019-05-18T06:54:50.834Z,7.50
2019-05-18T06:57:20.054Z,7.90
2019-05-18T06:59:49.222Z,8.27
2019-05-18T07:02:17.630Z,6.50
2019-05-18T07:04:46.139Z,7.80
2019-05-18T07:07:14.557Z,6.90
2019-05-18T07:09:43.020Z,9.70
2019-05-18T07:12:11.459Z,6.17
2019-05-18T07:14:39.844Z,7.40
2019-05-18T07:17:08.282Z,5.53
2019-05-18T07:19:36.838Z,6.10
2019-05-18T07:22:05.261Z,5.92
2019-05-18T07:24:33.688Z,6.80
2019-05-18T07:27:02.125Z,6.80
2019-05-18T07:29:30.556Z,6.73
2019-05-18T07:31:59.031Z,6.47
2019-05-18T07:34:27.557Z,5.37
2019-05-18T07:36:56.127Z,9.13
2019-05-18T07:39:24.556Z,7.17
2019-05-18T07:41:53.981Z,6.37
2019-05-18T07:44:22.407Z,7.23
2019-05-18T07:46:50.852Z,7.00
2019-05-18T07:49:19.274Z,7.20
2019-05-18T07:51:47.705Z,8.40
2019-05-18T07:54:16.140Z,7.90
2019-05-18T07:56:44.568Z,6.70
2019-05-18T07:59:12.965Z,6.07
2019-05-18T08:01:41.369Z,6.87
2019-05-18T08:04:09.814Z,6.80
2019-05-18T08:06:38.248Z,8.13
2019-05-18T08:09:08.184Z,7.97
2019-05-18T08:11:36.605Z,6.78
2019-05-18T08:14:05.196Z,7.00
2019-05-18T08:16:33.624Z,9.80
2019-05-18T08:19:02.057Z,7.05
2019-05-18T08:21:30.469Z,7.70
2019-05-18T08:23:58.889Z,9.13
2019-05-18T08:26:27.383Z,8.90
2019-05-18T08:28:55.789Z,6.23
2019-05-18T08:31:24.402Z,6.83
2019-05-18T08:33:52.809Z,6.90
2019-05-18T08:36:21.242Z,7.10
2019-05-18T08:38:49.702Z,8.73
2019-05-18T08:41:18.124Z,6.77
2019-05-18T08:43:46.532Z,6.57
2019-05-18T08:46:14.973Z,8.27
2019-05-18T08:48:43.499Z,9.77
2019-05-18T08:51:12.009Z,7.17
2019-05-18T08:53:40.460Z,9.27
2019-05-18T08:56:08.923Z,6.83
2019-05-18T08:58:37.348Z,8.20
2019-05-18T09:01:05.786Z,7.87
2019-05-18T09:03:34.184Z,10.30
2019-05-18T09:06:02.777Z,9.17
2019-05-18T09:08:31.193Z,9.97
2019-05-18T09:10:59.597Z,9.33
2019-05-18T09:13:28.018Z,13.23
2019-05-18T09:15:56.461Z,10.53
2019-05-18T09:18:24.983Z,12.73
2019-05-18T09:20:53.403Z,8.53
2019-05-18T09:23:21.861Z,10.40
2019-05-18T09:25:50.307Z,10.43
2019-05-18T09:28:18.731Z,9.77
2019-05-18T09:30:47.135Z,12.67
2019-05-18T09:33:15.555Z,10.70
2019-05-18T09:35:44.005Z,10.93
2019-05-18T09:38:12.448Z,10.10
2019-05-18T09:40:40.854Z,10.17
2019-05-18T09:43:09.253Z,10.47
2019-05-18T09:45:37.687Z,15.60
2019-05-18T09:48:06.136Z,11.90
2019-05-18T09:50:34.522Z,15.47
2019-05-18T09:53:03.050Z,13.17
2019-05-18T09:55:31.468Z,13.33
2019-05-18T09:57:59.880Z,10.60
2019-05-18T10:00:28.719Z,8.80
2019-05-18T10:02:57.162Z,9.67
2019-05-18T10:05:25.603Z,12.47
2019-05-18T10:07:56.735Z,13.40
2019-05-18T10:10:25.418Z,11.33
2019-05-18T10:12:53.840Z,10.37
2019-05-18T10:15:22.276Z,14.80
2019-05-18T10:17:50.717Z,12.60
2019-05-18T10:20:20.359Z,9.80
2019-05-18T10:22:59.152Z,10.83
2019-05-18T10:25:18.910Z,12.07
2019-05-18T10:27:47.355Z,11.67
2019-05-18T10:30:16.097Z,11.90
2019-05-18T10:32:44.531Z,9.80
2019-05-18T10:35:13.740Z,12.40
2019-05-18T10:37:42.181Z,10.10
2019-05-18T10:40:11.458Z,10.73
2019-05-18T10:42:39.869Z,10.90
2019-05-18T10:45:09.329Z,12.80
2019-05-18T10:47:37.757Z,9.83
2019-05-18T10:50:07.047Z,11.07
2019-05-18T10:52:35.448Z,11.30
2019-05-18T10:55:05.753Z,13.23
2019-05-18T10:57:34.193Z,11.65
2019-05-18T11:00:02.991Z,9.60
2019-05-18T11:02:31.514Z,11.53
2019-05-18T11:04:59.950Z,11.17
2019-05-18T11:07:29.067Z,9.00
2019-05-18T11:09:57.674Z,10.00
2019-05-18T11:12:26.011Z,9.60
2019-05-18T11:14:54.464Z,9.20
2019-05-18T11:17:22.852Z,7.10
2019-05-18T11:19:51.269Z,15.27
2019-05-18T11:22:19.710Z,7.63
2019-05-18T11:24:48.123Z,11.23
2019-05-18T11:27:16.548Z,6.50
2019-05-18T11:29:44.953Z,7.07
2019-05-18T11:32:13.357Z,6.87
2019-05-18T11:34:41.782Z,4.97
2019-05-18T11:37:10.176Z,8.68
2019-05-18T11:39:38.573Z,8.07
2019-05-18T11:42:07.030Z,9.97
2019-05-18T11:44:35.513Z,9.75
2019-05-18T11:47:04.608Z,8.83
2019-05-18T11:49:33.327Z,6.57
2019-05-18T11:52:01.726Z,6.13
2019-05-18T11:54:30.245Z,5.73
2019-05-18T11:56:58.677Z,5.83
2019-05-18T11:59:27.070Z,7.03
2019-05-18T12:01:56.436Z,8.30
2019-05-18T12:04:24.825Z,6.37
2019-05-18T12:06:53.239Z,4.70
2019-05-18T12:09:21.675Z,5.17
2019-05-18T12:11:50.348Z,7.10
2019-05-18T12:14:18.775Z,6.10
2019-05-18T12:16:47.214Z,6.40
2019-05-18T12:19:15.632Z,5.30
2019-05-18T12:21:44.088Z,6.00
2019-05-18T12:24:15.438Z,5.83
2019-05-18T12:26:42.665Z,5.30
2019-05-18T12:29:11.058Z,4.47
2019-05-18T12:31:39.490Z,4.30
2019-05-18T12:34:07.902Z,5.20
2019-05-18T12:36:36.328Z,6.63
2019-05-18T12:39:06.465Z,5.40
2019-05-18T12:41:34.962Z,4.47
2019-05-18T12:44:03.437Z,6.03
2019-05-18T12:46:31.873Z,5.50
2019-05-18T12:49:00.261Z,5.10
2019-05-18T12:51:28.661Z,4.57
2019-05-18T12:53:57.085Z,5.43
2019-05-18T12:56:25.506Z,4.20
2019-05-18T12:58:53.956Z,4.97
2019-05-18T13:01:22.444Z,7.03
2019-05-18T13:03:50.858Z,3.20
2019-05-18T13:06:19.269Z,7.50
2019-05-18T13:08:47.719Z,5.80
2019-05-18T13:11:16.147Z,3.20
2019-05-18T13:13:44.573Z,5.43
2019-05-18T13:16:12.998Z,5.80
2019-05-18T13:18:41.418Z,6.73
2019-05-18T13:21:09.858Z,6.30
2019-05-18T13:23:38.298Z,5.30
2019-05-18T13:26:06.713Z,7.50
2019-05-18T13:28:35.136Z,9.57
2019-05-18T13:31:03.556Z,8.67
2019-05-18T13:33:31.969Z,6.37
2019-05-18T13:36:00.386Z,10.00
2019-05-18T13:38:28.788Z,6.37
2019-05-18T13:40:57.259Z,7.33
2019-05-18T13:43:25.673Z,6.60
2019-05-18T13:45:54.109Z,6.27
2019-05-18T13:48:22.543Z,3.50
2019-05-18T13:50:51.069Z,3.60
2019-05-18T13:53:19.462Z,7.97
2019-05-18T13:55:47.891Z,4.13
2019-05-18T13:58:16.349Z,3.10
2019-05-18T14:00:44.779Z,2.35
2019-05-18T14:03:13.207Z,5.85
2019-05-18T14:05:41.688Z,6.10
2019-05-18T14:08:15.553Z,3.67
2019-05-18T14:10:40.257Z,3.57
2019-05-18T14:13:08.664Z,3.37
2019-05-18T14:15:37.147Z,3.40
2019-05-18T14:18:05.584Z,3.30
2019-05-18T14:20:33.996Z,4.33
2019-05-18T14:23:03.319Z,3.60
2019-05-18T14:25:31.786Z,3.67
2019-05-18T14:28:00.194Z,7.17
2019-05-18T14:30:28.604Z,5.53
2019-05-18T14:32:57.813Z,3.80
2019-05-18T14:35:26.215Z,7.03
2019-05-18T14:37:54.639Z,2.83
2019-05-18T14:40:23.051Z,3.17
2019-05-18T14:42:51.473Z,3.23
2019-05-18T14:45:20.583Z,3.53
2019-05-18T14:47:49.063Z,2.73
2019-05-18T14:50:18.917Z,3.10
2019-05-18T14:52:47.332Z,4.50
2019-05-18T14:55:16.208Z,4.20
2019-05-18T14:57:44.627Z,5.47
2019-05-18T15:00:13.457Z,3.45
2019-05-18T15:02:41.896Z,5.30
2019-05-18T15:05:10.975Z,11.83
2019-05-18T15:07:39.380Z,33.93
2019-05-18T15:10:09.676Z,8.03
2019-05-18T15:12:38.211Z,6.10
2019-05-18T15:15:07.970Z,3.97
2019-05-18T15:17:36.533Z,4.70
2019-05-18T15:20:06.922Z,3.77
2019-05-18T15:22:35.345Z,6.20
2019-05-18T15:25:04.103Z,3.63
2019-05-18T15:27:37.531Z,5.87
2019-05-18T15:30:08.263Z,6.72
2019-05-18T15:32:36.859Z,6.53
2019-05-18T15:35:07.283Z,6.47
2019-05-18T15:37:35.763Z,4.53
2019-05-18T15:40:05.393Z,5.93
2019-05-18T15:42:33.963Z,7.40
2019-05-18T15:45:02.437Z,6.57
2019-05-18T15:47:31.553Z,14.40
2019-05-18T15:49:59.952Z,4.23
2019-05-18T15:52:28.343Z,5.07
2019-05-18T15:54:56.758Z,2.90
2019-05-18T15:57:25.173Z,4.47
2019-05-18T15:59:53.576Z,5.83
2019-05-18T16:02:21.999Z,5.93
2019-05-18T16:04:50.481Z,4.63
2019-05-18T16:07:18.887Z,4.60
2019-05-18T16:09:47.355Z,16.33
2019-05-18T16:12:15.782Z,25.10
2019-05-18T16:14:44.221Z,12.55
2019-05-18T16:17:12.639Z,13.73
2019-05-18T16:19:41.091Z,20.83
2019-05-18T16:22:09.500Z,7.50
2019-05-18T16:24:37.918Z,4.83
2019-05-18T16:27:06.342Z,2.40
2019-05-18T16:29:34.901Z,3.40
2019-05-18T16:32:03.328Z,5.20
2019-05-18T16:34:31.948Z,6.27
2019-05-18T16:37:00.901Z,5.07
2019-05-18T16:39:29.535Z,5.27
2019-05-18T16:41:57.942Z,8.27
2019-05-18T16:44:26.379Z,7.37
2019-05-18T16:46:54.803Z,5.77
2019-05-18T16:49:23.243Z,5.90
2019-05-18T16:51:51.671Z,4.07
2019-05-18T16:54:20.097Z,3.30
2019-05-18T16:56:48.526Z,3.90
2019-05-18T16:59:16.945Z,6.63
2019-05-18T17:01:45.448Z,5.00
2019-05-18T17:04:13.905Z,3.05
2019-05-18T17:06:42.360Z,4.60
2019-05-18T17:09:10.753Z,5.50
2019-05-18T17:11:39.201Z,3.33
2019-05-18T17:14:07.582Z,3.00
2019-05-18T17:16:35.992Z,3.10
2019-05-18T17:19:04.398Z,4.20
2019-05-18T17:21:32.835Z,3.43
2019-05-18T17:24:02.222Z,4.63
2019-05-18T17:26:30.667Z,3.47
2019-05-18T17:28:59.069Z,4.37
2019-05-18T17:31:27.497Z,4.37
2019-05-18T17:33:55.957Z,4.20
2019-05-18T17:36:24.344Z,5.00
2019-05-18T17:38:52.770Z,5.73
2019-05-18T17:41:21.174Z,4.60
2019-05-18T17:43:49.666Z,3.50
2019-05-18T17:46:18.081Z,4.13
2019-05-18T17:48:46.546Z,6.10
2019-05-18T17:51:15.008Z,4.95
2019-05-18T17:53:43.416Z,4.50
2019-05-18T17:56:11.806Z,4.10
2019-05-18T17:58:40.287Z,4.80
2019-05-18T18:01:08.805Z,5.20
2019-05-18T18:03:37.218Z,3.67
2019-05-18T18:06:05.631Z,3.47
2019-05-18T18:08:34.087Z,3.87
2019-05-18T18:11:02.553Z,4.20
2019-05-18T18:13:30.964Z,5.10
2019-05-18T18:15:59.387Z,4.00
2019-05-18T18:18:28.076Z,5.30
2019-05-18T18:20:56.497Z,4.15
2019-05-18T18:23:24.922Z,3.60
2019-05-18T18:25:53.338Z,6.23
2019-05-18T18:28:21.736Z,3.80
2019-05-18T18:30:50.147Z,4.90
2019-05-18T18:33:18.558Z,6.37
2019-05-18T18:35:47.078Z,4.12
2019-05-18T18:38:15.479Z,5.13
2019-05-18T18:40:44.139Z,8.10
2019-05-18T18:43:12.562Z,5.63
2019-05-18T18:45:40.995Z,4.20
2019-05-18T18:48:09.395Z,3.47
2019-05-18T18:50:37.807Z,3.83
2019-05-18T18:53:06.240Z,4.90
2019-05-18T18:55:34.690Z,5.03
2019-05-18T18:58:03.110Z,2.40
2019-05-18T19:00:31.576Z,7.00
2019-05-18T19:03:00.064Z,1.87
2019-05-18T19:05:28.500Z,2.40
2019-05-18T19:07:56.918Z,4.07
2019-05-18T19:10:25.396Z,4.43
2019-05-18T19:12:53.831Z,3.23
2019-05-18T19:15:22.259Z,3.30
2019-05-18T19:17:50.902Z,5.97
2019-05-18T19:20:19.549Z,2.60
2019-05-18T19:22:47.962Z,2.23
2019-05-18T19:25:16.713Z,2.72
2019-05-18T19:27:54.710Z,2.97
2019-05-18T19:30:15.623Z,2.37
2019-05-18T19:32:44.054Z,2.77
2019-05-18T19:35:13.581Z,2.47
2019-05-18T19:37:41.985Z,2.00
2019-05-18T19:40:10.776Z,5.37
2019-05-18T19:42:39.266Z,2.10
2019-05-18T19:45:08.572Z,3.00
2019-05-18T19:47:37.021Z,4.07
2019-05-18T19:50:06.648Z,3.93
2019-05-18T19:52:35.118Z,3.77
2019-05-18T19:55:04.433Z,2.20
2019-05-18T19:57:33.476Z,3.45
2019-05-18T20:00:02.273Z,2.83
2019-05-18T20:02:30.748Z,3.33
2019-05-18T20:05:07.614Z,2.60
2019-05-18T20:07:29.598Z,7.03
2019-05-18T20:09:58.002Z,3.90
2019-05-18T20:12:26.531Z,4.67
2019-05-18T20:14:54.947Z,6.10
2019-05-18T20:17:23.391Z,6.97
2019-05-18T20:19:51.817Z,4.50
2019-05-18T20:22:20.236Z,5.37
2019-05-18T20:24:48.667Z,4.97
2019-05-18T20:27:17.139Z,12.63
2019-05-18T20:29:45.597Z,6.13
2019-05-18T20:32:14.023Z,6.90
2019-05-18T20:34:42.458Z,6.73
2019-05-18T20:37:10.916Z,6.53
2019-05-18T20:39:39.337Z,8.33
2019-05-18T20:42:07.833Z,8.20
2019-05-18T20:44:36.281Z,7.03
2019-05-18T20:47:04.795Z,7.17
2019-05-18T20:49:33.854Z,10.17
2019-05-18T20:52:02.289Z,5.80
2019-05-18T20:54:30.694Z,8.60
2019-05-18T20:56:59.144Z,5.90
2019-05-18T20:59:27.573Z,6.33
2019-05-18T21:01:56.009Z,6.30
2019-05-18T21:04:24.481Z,8.97
2019-05-18T21:06:52.921Z,9.50
2019-05-18T21:09:21.494Z,9.05
2019-05-18T21:11:50.526Z,7.97
2019-05-18T21:14:18.935Z,9.00
2019-05-18T21:16:47.382Z,6.33
2019-05-18T21:19:15.797Z,9.20
2019-05-18T21:21:44.213Z,8.77
2019-05-18T21:24:12.644Z,7.33
2019-05-18T21:26:41.179Z,9.30
2019-05-18T21:29:09.585Z,6.17
2019-05-18T21:31:37.978Z,7.63
2019-05-18T21:34:06.441Z,7.70
2019-05-18T21:36:34.880Z,7.30
2019-05-18T21:39:05.500Z,6.90
2019-05-18T21:41:34.240Z,11.13
2019-05-18T21:44:02.668Z,11.97
2019-05-18T21:46:31.158Z,16.83
2019-05-18T21:48:59.582Z,15.60
2019-05-18T21:51:28.056Z,16.60
2019-05-18T21:53:56.541Z,14.63
2019-05-18T21:56:24.972Z,10.87
2019-05-18T21:58:53.467Z,13.67
2019-05-18T22:01:22.013Z,11.20
2019-05-18T22:03:50.473Z,11.87
2019-05-18T22:06:18.896Z,9.60
2019-05-18T22:08:47.275Z,11.80
2019-05-18T22:11:15.875Z,20.07
2019-05-18T22:13:44.296Z,30.23
2019-05-18T22:16:12.729Z,16.33
2019-05-18T22:18:41.160Z,14.30
2019-05-18T22:21:09.643Z,18.80
2019-05-18T22:23:38.062Z,14.10
2019-05-18T22:26:06.476Z,16.03
2019-05-18T22:28:34.986Z,18.60
2019-05-18T22:31:03.489Z,18.07
2019-05-18T22:33:31.911Z,16.90
2019-05-18T22:36:00.335Z,17.10
2019-05-18T22:38:28.757Z,13.63
2019-05-18T22:40:57.168Z,19.27
2019-05-18T22:43:25.658Z,13.63
2019-05-18T22:45:54.080Z,14.70
2019-05-18T22:48:22.559Z,15.27
2019-05-18T22:50:50.989Z,17.40
2019-05-18T22:53:19.427Z,23.23
2019-05-18T22:55:47.832Z,21.33
2019-05-18T22:58:16.274Z,17.00
2019-05-18T23:00:44.685Z,18.60
2019-05-18T23:03:13.099Z,24.37
2019-05-18T23:05:41.541Z,25.35
2019-05-18T23:08:09.997Z,28.20
2019-05-18T23:10:39.112Z,27.20
2019-05-18T23:13:07.551Z,22.07
2019-05-18T23:15:36.393Z,23.83
2019-05-18T23:18:05.343Z,26.07
2019-05-18T23:20:33.786Z,23.30
2019-05-18T23:23:02.235Z,25.17
2019-05-18T23:25:30.660Z,21.17
2019-05-18T23:27:59.100Z,23.37
2019-05-18T23:30:27.504Z,22.63
2019-05-18T23:32:55.933Z,19.10
2019-05-18T23:35:24.340Z,20.87
2019-05-18T23:37:52.764Z,20.97
2019-05-18T23:40:21.298Z,19.50
2019-05-18T23:42:49.747Z,21.07
2019-05-18T23:45:18.137Z,21.40
2019-05-18T23:47:46.555Z,23.03
2019-05-18T23:50:15.205Z,25.48
2019-05-18T23:52:43.626Z,23.07
2019-05-18T23:55:12.607Z,24.10
2019-05-18T23:57:41.006Z,25.13
